Time;durP1;ratioP1;P1;durP2;ratioP2;P2;SDS_P1;SDS_P2;PMS_P1;PMS_P2;Temp;Humidity;BMP_temperature;BMP_pressure;BME280_temperature;BME280_humidity;BME280_pressure;Samples;Min_cycle;Max_cycle;Signal;HPM_P1;HPM_P2
2023/09/05 00:01:53;;;;;;;;;;;20.90;85.70;;;;;;5056149;28;19916;-71
2023/09/05 00:04:18;;;;;;;;;;;20.90;85.60;;;;;;5038582;28;19909;-71
2023/09/05 00:06:44;;;;;;;;;;;20.90;85.70;;;;;;5056443;28;19909;-73
2023/09/05 00:09:11;;;;;;;;;;;20.90;85.60;;;;;;5056042;28;19909;-72
2023/09/05 00:11:36;;;;;;;;;;;20.90;85.60;;;;;;5055992;28;19920;-72
2023/09/05 00:14:02;;;;;;;;;;;20.90;85.60;;;;;;5056511;28;19912;-72
2023/09/05 00:16:28;;;;;;;;;;;20.90;85.60;;;;;;5056277;28;19916;-73
2023/09/05 00:18:54;;;;;;;;;;;20.90;85.60;;;;;;5055849;28;19919;-72
2023/09/05 00:21:19;;;;;;;;;;;20.90;85.50;;;;;;5056093;28;20003;-72
2023/09/05 00:23:45;;;;;;;;;;;20.90;85.60;;;;;;5056078;28;19999;-72
2023/09/05 00:26:10;;;;;;;;;;;20.90;85.50;;;;;;5056067;28;20356;-74
2023/09/05 00:28:36;;;;;;;;;;;20.90;85.50;;;;;;5055985;28;19920;-74
2023/09/05 00:31:01;;;;;;;;;;;20.90;86.00;;;;;;5055845;28;19916;-74
2023/09/05 00:33:29;;;;;;;;;;;20.90;85.60;;;;;;5055613;28;19909;-73
2023/09/05 00:35:54;;;;;;;;;;;20.80;85.40;;;;;;5056028;28;19927;-71
2023/09/05 00:38:22;;;;;;;;;;;20.90;85.50;;;;;;5055523;28;19912;-71
2023/09/05 00:40:49;;;;;;;;;;;20.90;85.40;;;;;;5055527;28;19909;-71
2023/09/05 00:43:17;;;;;;;;;;;20.90;85.50;;;;;;5055765;28;19996;-72
2023/09/05 00:45:45;;;;;;;;;;;20.90;85.60;;;;;;5055467;28;19935;-72
2023/09/05 00:48:11;;;;;;;;;;;20.90;85.60;;;;;;5055816;28;19925;-72
2023/09/05 00:50:40;;;;;;;;;;;20.90;85.50;;;;;;5055531;28;19909;-73
2023/09/05 00:53:06;;;;;;;;;;;20.90;85.50;;;;;;5055225;28;20000;-71
2023/09/05 00:55:31;;;;;;;;;;;20.90;85.60;;;;;;5055360;28;19959;-71
2023/09/05 00:58:00;;;;;;;;;;;20.90;85.70;;;;;;5055440;28;20060;-72
2023/09/05 01:00:26;;;;;;;;;;;20.90;85.60;;;;;;5055382;28;19936;-72
2023/09/05 01:02:53;;;;;;;;;;;20.90;85.70;;;;;;5055373;28;19923;-71
2023/09/05 01:05:20;;;;;;;;;;;20.90;85.70;;;;;;5055233;28;19916;-72
2023/09/05 01:07:52;;;;;;;;;;;20.90;85.80;;;;;;5055534;28;19917;-72
2023/09/05 01:10:21;;;;;;;;;;;20.90;85.90;;;;;;5055497;28;19909;-71
2023/09/05 01:12:46;;;;;;;;;;;20.90;85.80;;;;;;5054889;28;19909;-71
2023/09/05 01:15:12;;;;;;;;;;;20.90;85.60;;;;;;5054785;28;20011;-71
2023/09/05 01:17:37;;;;;;;;;;;20.80;85.50;;;;;;5054744;28;19912;-71
2023/09/05 01:20:04;;;;;;;;;;;20.90;85.70;;;;;;5055246;28;20268;-71
2023/09/05 01:22:33;;;;;;;;;;;20.80;85.60;;;;;;5054904;28;19908;-71
2023/09/05 01:24:58;;;;;;;;;;;20.80;85.60;;;;;;5054843;28;20360;-71
2023/09/05 01:27:26;;;;;;;;;;;20.90;85.60;;;;;;5054571;28;19916;-71
2023/09/05 01:29:51;;;;;;;;;;;20.80;85.50;;;;;;5054509;28;19936;-71
2023/09/05 01:32:19;;;;;;;;;;;20.80;85.40;;;;;;5054482;28;19908;-73
2023/09/05 01:34:45;;;;;;;;;;;20.80;85.50;;;;;;5054688;28;19909;-72
2023/09/05 01:37:14;;;;;;;;;;;20.80;85.30;;;;;;5054667;28;20359;-71
2023/09/05 01:39:39;;;;;;;;;;;20.80;85.50;;;;;;5054523;28;20280;-73
2023/09/05 01:42:05;;;;;;;;;;;20.80;85.50;;;;;;5053803;28;19909;-71
2023/09/05 01:44:32;;;;;;;;;;;20.80;85.70;;;;;;5054507;28;19962;-71
2023/09/05 01:46:58;;;;;;;;;;;20.80;85.70;;;;;;5054213;28;20340;-71
2023/09/05 01:49:23;;;;;;;;;;;20.80;85.60;;;;;;5054124;28;19916;-70
2023/09/05 01:51:49;;;;;;;;;;;20.80;85.60;;;;;;5054078;28;20384;-72
2023/09/05 01:54:14;;;;;;;;;;;20.80;85.60;;;;;;5054005;28;19916;-70
2023/09/05 01:56:40;;;;;;;;;;;20.80;85.70;;;;;;5054438;28;19913;-71
2023/09/05 01:59:06;;;;;;;;;;;20.80;85.60;;;;;;5053934;28;19938;-72
2023/09/05 02:01:32;;;;;;;;;;;20.80;85.80;;;;;;5036085;28;19916;-71
2023/09/05 02:03:58;;;;;;;;;;;20.80;86.20;;;;;;5054214;28;20337;-71
2023/09/05 02:06:23;;;;;;;;;;;20.80;85.80;;;;;;5053953;28;19959;-71
2023/09/05 02:08:48;;;;;;;;;;;20.80;85.90;;;;;;5053888;28;20315;-71
2023/09/05 02:11:14;;;;;;;;;;;20.80;85.90;;;;;;5054033;28;19963;-67
2023/09/05 02:13:40;;;;;;;;;;;20.80;86.00;;;;;;5054096;28;19909;-71
2023/09/05 02:16:06;;;;;;;;;;;20.80;85.90;;;;;;5035945;28;19917;-70
2023/09/05 02:18:32;;;;;;;;;;;20.80;86.00;;;;;;5053983;28;20367;-71
2023/09/05 02:20:58;;;;;;;;;;;20.80;86.00;;;;;;5053655;28;19916;-70
2023/09/05 02:23:24;;;;;;;;;;;20.80;86.00;;;;;;5053930;28;19909;-70
2023/09/05 02:26:00;;;;;;;;;;;20.80;86.00;;;;;;5053862;28;19916;-70
2023/09/05 02:28:25;;;;;;;;;;;20.80;86.00;;;;;;5053591;28;20276;-71
2023/09/05 02:30:51;;;;;;;;;;;20.80;86.00;;;;;;5053839;28;19913;-69
2023/09/05 02:33:19;;;;;;;;;;;20.80;86.00;;;;;;5053855;28;19913;-70
2023/09/05 02:35:44;;;;;;;;;;;20.80;86.00;;;;;;5053760;28;19968;-74
2023/09/05 02:38:10;;;;;;;;;;;20.80;86.00;;;;;;5053513;28;19944;-71
2023/09/05 02:40:35;;;;;;;;;;;20.80;86.00;;;;;;5053682;28;19919;-71
2023/09/05 02:43:01;;;;;;;;;;;20.80;86.00;;;;;;5053644;28;20429;-71
2023/09/05 02:45:26;;;;;;;;;;;20.80;86.00;;;;;;5054027;28;20000;-70
2023/09/05 02:47:52;;;;;;;;;;;20.80;86.00;;;;;;5053852;28;19928;-70
2023/09/05 02:50:18;;;;;;;;;;;20.80;86.00;;;;;;5053730;28;19909;-71
2023/09/05 02:52:43;;;;;;;;;;;20.80;86.00;;;;;;5053758;28;19916;-71
2023/09/05 02:55:09;;;;;;;;;;;20.80;86.00;;;;;;5056383;28;19909;-71
2023/09/05 02:57:34;;;;;;;;;;;20.80;86.10;;;;;;5057373;28;19998;-71
2023/09/05 03:00:00;;;;;;;;;;;20.80;86.10;;;;;;5057396;28;19919;-71
2023/09/05 03:02:26;;;;;;;;;;;20.80;86.10;;;;;;5057284;28;20351;-71
2023/09/05 03:04:52;;;;;;;;;;;20.80;86.00;;;;;;5057615;28;19916;-71
2023/09/05 03:07:18;;;;;;;;;;;20.80;86.10;;;;;;5057576;28;19909;-71
2023/09/05 03:09:43;;;;;;;;;;;20.80;86.10;;;;;;5057563;28;19912;-71
2023/09/05 03:12:09;;;;;;;;;;;20.80;86.10;;;;;;5057405;28;19970;-71
2023/09/05 03:14:34;;;;;;;;;;;20.80;86.10;;;;;;5057077;28;19909;-71
2023/09/05 03:17:02;;;;;;;;;;;20.80;86.10;;;;;;5039374;28;20433;-71
2023/09/05 03:19:27;;;;;;;;;;;20.80;86.10;;;;;;5057285;28;19959;-71
2023/09/05 03:21:53;;;;;;;;;;;20.80;86.10;;;;;;5057327;28;19909;-71
2023/09/05 03:24:18;;;;;;;;;;;20.80;86.10;;;;;;5057244;28;20363;-71
2023/09/05 03:26:45;;;;;;;;;;;20.80;86.10;;;;;;5057248;28;19913;-71
2023/09/05 03:29:10;;;;;;;;;;;20.80;86.10;;;;;;5057084;28;20267;-72
2023/09/05 03:31:36;;;;;;;;;;;20.80;86.10;;;;;;5057102;28;20007;-72
2023/09/05 03:34:02;;;;;;;;;;;20.80;86.10;;;;;;5056773;28;19909;-72
2023/09/05 03:36:27;;;;;;;;;;;20.80;86.10;;;;;;5056921;28;20451;-72
2023/09/05 03:38:53;;;;;;;;;;;20.80;86.10;;;;;;5057022;28;19913;-71
2023/09/05 03:41:18;;;;;;;;;;;20.80;86.10;;;;;;5056678;28;19913;-72
2023/09/05 03:43:43;;;;;;;;;;;20.80;86.20;;;;;;5057241;28;19916;-72
2023/09/05 03:46:09;;;;;;;;;;;20.80;86.20;;;;;;5056263;28;20012;-72
2023/09/05 03:48:34;;;;;;;;;;;20.80;86.20;;;;;;5055255;28;19978;-71
2023/09/05 03:51:00;;;;;;;;;;;20.80;86.10;;;;;;5055489;28;20364;-71
2023/09/05 03:53:25;;;;;;;;;;;20.80;86.10;;;;;;5055183;28;19912;-71
2023/09/05 03:55:51;;;;;;;;;;;20.80;86.20;;;;;;5055547;28;19920;-71
2023/09/05 03:58:16;;;;;;;;;;;20.80;86.70;;;;;;5055210;28;19913;-71
2023/09/05 04:00:42;;;;;;;;;;;20.80;86.20;;;;;;5055430;28;20020;-71
2023/09/05 04:03:10;;;;;;;;;;;20.80;86.20;;;;;;5055311;28;19958;-71
2023/09/05 04:05:36;;;;;;;;;;;20.80;86.20;;;;;;5054914;28;19913;-71
2023/09/05 04:08:02;;;;;;;;;;;20.80;86.20;;;;;;5055267;28;19916;-72
2023/09/05 04:10:27;;;;;;;;;;;20.80;86.20;;;;;;5055218;28;19963;-71
2023/09/05 04:12:53;;;;;;;;;;;20.80;86.20;;;;;;5055184;28;20366;-71
2023/09/05 04:15:22;;;;;;;;;;;20.70;86.10;;;;;;5055094;28;19916;-72
2023/09/05 04:17:48;;;;;;;;;;;20.80;86.20;;;;;;5054923;28;20071;-65
2023/09/05 04:20:13;;;;;;;;;;;20.70;86.20;;;;;;5055089;28;20375;-73
2023/09/05 04:22:39;;;;;;;;;;;20.80;86.20;;;;;;5054762;28;20359;-73
2023/09/05 04:25:08;;;;;;;;;;;20.70;86.10;;;;;;5054696;28;19955;-73
2023/09/05 04:27:34;;;;;;;;;;;20.70;86.20;;;;;;5054985;28;19935;-73
2023/09/05 04:29:59;;;;;;;;;;;20.80;86.20;;;;;;5054679;28;19909;-73
2023/09/05 04:32:30;;;;;;;;;;;20.70;86.20;;;;;;5054767;28;19915;-73
2023/09/05 04:34:59;;;;;;;;;;;20.70;86.20;;;;;;5054475;28;20322;-73
2023/09/05 04:37:25;;;;;;;;;;;20.70;86.70;;;;;;5054646;28;19913;-72
2023/09/05 04:39:51;;;;;;;;;;;20.70;86.20;;;;;;5054767;28;19924;-73
2023/09/05 04:42:16;;;;;;;;;;;20.80;86.30;;;;;;5054410;28;19985;-73
2023/09/05 04:44:42;;;;;;;;;;;20.70;86.20;;;;;;5054487;28;20363;-73
2023/09/05 04:47:24;;;;;;;;;;;20.70;86.20;;;;;;4991295;28;1802001;-73
2023/09/05 04:49:50;;;;;;;;;;;20.70;86.20;;;;;;5055336;28;20367;-73
2023/09/05 04:52:16;;;;;;;;;;;20.80;86.30;;;;;;5055577;28;19909;-73
2023/09/05 04:54:41;;;;;;;;;;;20.70;86.20;;;;;;5055512;28;19999;-73
2023/09/05 04:57:07;;;;;;;;;;;20.70;86.20;;;;;;5055067;28;20011;-73
2023/09/05 04:59:32;;;;;;;;;;;20.70;86.20;;;;;;5055087;28;19952;-74
2023/09/05 05:01:58;;;;;;;;;;;20.70;86.30;;;;;;5055366;28;19909;-74
2023/09/05 05:04:23;;;;;;;;;;;20.70;86.30;;;;;;5054920;28;19909;-73
2023/09/05 05:06:49;;;;;;;;;;;20.80;86.30;;;;;;5037345;28;19909;-67
2023/09/05 05:09:14;;;;;;;;;;;20.80;86.40;;;;;;5055030;28;20264;-72
2023/09/05 05:11:40;;;;;;;;;;;20.70;86.30;;;;;;5055037;28;20066;-72
2023/09/05 05:14:05;;;;;;;;;;;20.70;86.40;;;;;;5054744;28;20383;-71
2023/09/05 05:16:30;;;;;;;;;;;20.70;86.40;;;;;;5053987;28;19913;-71
2023/09/05 05:18:56;;;;;;;;;;;20.70;86.30;;;;;;5036958;28;20010;-72
2023/09/05 05:21:22;;;;;;;;;;;20.80;86.40;;;;;;5055282;28;19916;-71
2023/09/05 05:23:47;;;;;;;;;;;20.70;86.30;;;;;;5054498;28;20318;-71
2023/09/05 05:26:13;;;;;;;;;;;20.70;86.30;;;;;;5054284;28;19909;-71
2023/09/05 05:28:38;;;;;;;;;;;20.70;86.30;;;;;;5054747;28;20419;-71
2023/09/05 05:31:11;;;;;;;;;;;20.70;86.30;;;;;;5054440;28;19963;-71
2023/09/05 05:33:36;;;;;;;;;;;20.70;86.80;;;;;;5054715;28;19963;-72
2023/09/05 05:36:02;;;;;;;;;;;20.70;86.40;;;;;;5054243;28;19963;-72
2023/09/05 05:38:27;;;;;;;;;;;20.70;86.30;;;;;;5054397;28;19913;-72
2023/09/05 05:40:53;;;;;;;;;;;20.70;86.40;;;;;;5054432;28;20343;-72
2023/09/05 05:43:18;;;;;;;;;;;20.70;86.30;;;;;;5054189;28;19908;-71
2023/09/05 05:45:47;;;;;;;;;;;20.70;86.30;;;;;;5054427;28;19916;-73
2023/09/05 05:48:13;;;;;;;;;;;20.70;86.30;;;;;;5054140;28;19963;-73
2023/09/05 05:50:38;;;;;;;;;;;20.70;86.30;;;;;;5054009;28;19920;-73
2023/09/05 05:53:03;;;;;;;;;;;20.80;86.40;;;;;;5054251;28;19909;-72
2023/09/05 05:55:29;;;;;;;;;;;20.80;86.40;;;;;;5053829;28;19909;-72
2023/09/05 05:57:54;;;;;;;;;;;20.70;86.40;;;;;;5054055;28;19923;-72
2023/09/05 06:00:20;;;;;;;;;;;20.70;86.40;;;;;;5053727;28;20244;-66
2023/09/05 06:02:45;;;;;;;;;;;20.70;86.20;;;;;;5054015;28;19995;-73
2023/09/05 06:05:11;;;;;;;;;;;20.70;86.40;;;;;;5053764;28;20023;-72
2023/09/05 06:07:36;;;;;;;;;;;20.70;86.40;;;;;;5053937;28;19913;-73
2023/09/05 06:10:02;;;;;;;;;;;20.70;86.40;;;;;;5053662;28;19915;-72
2023/09/05 06:12:28;;;;;;;;;;;20.80;86.50;;;;;;5053944;28;19920;-72
2023/09/05 06:14:53;;;;;;;;;;;20.70;86.40;;;;;;5053659;28;19909;-72
2023/09/05 06:17:19;;;;;;;;;;;20.70;86.40;;;;;;5053295;28;19974;-72
2023/09/05 06:19:44;;;;;;;;;;;20.70;86.40;;;;;;5053658;28;19917;-72
2023/09/05 06:22:10;;;;;;;;;;;20.70;86.40;;;;;;5053770;28;19987;-71
2023/09/05 06:24:35;;;;;;;;;;;20.70;86.30;;;;;;5053708;28;19920;-71
2023/09/05 06:27:01;;;;;;;;;;;20.70;86.40;;;;;;5053681;28;19915;-72
2023/09/05 06:29:26;;;;;;;;;;;20.70;86.40;;;;;;5053363;28;19913;-71
2023/09/05 06:31:52;;;;;;;;;;;20.70;86.40;;;;;;5053533;28;19916;-71
2023/09/05 06:34:17;;;;;;;;;;;20.70;86.40;;;;;;5053609;28;19909;-72
2023/09/05 06:36:43;;;;;;;;;;;20.70;86.40;;;;;;5035415;28;19917;-72
2023/09/05 06:39:08;;;;;;;;;;;20.70;86.40;;;;;;5053560;28;20007;-72
2023/09/05 06:41:35;;;;;;;;;;;20.70;86.30;;;;;;5035599;28;19916;-72
2023/09/05 06:44:00;;;;;;;;;;;20.70;86.00;;;;;;5053485;28;19912;-72
2023/09/05 06:46:26;;;;;;;;;;;20.70;86.00;;;;;;5053474;28;19971;-69
2023/09/05 06:48:51;;;;;;;;;;;20.70;86.00;;;;;;5053295;28;19916;-66
2023/09/05 06:51:17;;;;;;;;;;;20.70;86.20;;;;;;5053213;28;19909;-72
2023/09/05 06:53:42;;;;;;;;;;;20.70;86.40;;;;;;5053422;28;19916;-72
2023/09/05 06:56:08;;;;;;;;;;;20.70;86.30;;;;;;5053628;28;19964;-72
2023/09/05 06:58:33;;;;;;;;;;;20.70;86.20;;;;;;5035249;28;19913;-73
2023/09/05 07:01:03;;;;;;;;;;;20.70;86.00;;;;;;5052878;28;20405;-72
2023/09/05 07:03:29;;;;;;;;;;;20.70;86.30;;;;;;5053322;28;20392;-72
2023/09/05 07:05:54;;;;;;;;;;;20.70;85.90;;;;;;5053365;28;19960;-71
2023/09/05 07:08:20;;;;;;;;;;;20.70;86.10;;;;;;5053285;28;19909;-71
2023/09/05 07:10:47;;;;;;;;;;;20.70;86.20;;;;;;5052896;28;19916;-72
2023/09/05 07:13:12;;;;;;;;;;;20.70;86.10;;;;;;5052946;28;20012;-72
2023/09/05 07:15:38;;;;;;;;;;;20.70;86.00;;;;;;5053352;28;19956;-71
2023/09/05 07:18:04;;;;;;;;;;;20.70;86.20;;;;;;5053137;28;19913;-71
2023/09/05 07:20:30;;;;;;;;;;;20.70;86.10;;;;;;5052683;28;20344;-72
2023/09/05 07:22:56;;;;;;;;;;;20.60;86.10;;;;;;5053148;28;19908;-72
2023/09/05 07:25:21;;;;;;;;;;;20.70;86.10;;;;;;5052928;28;19915;-72
2023/09/05 07:27:47;;;;;;;;;;;20.60;86.10;;;;;;5052653;28;19936;-72
2023/09/05 07:30:13;;;;;;;;;;;20.60;86.30;;;;;;5052889;28;19913;-72
2023/09/05 07:32:38;;;;;;;;;;;20.60;86.40;;;;;;5035214;28;19920;-72
2023/09/05 07:35:04;;;;;;;;;;;20.60;86.30;;;;;;5053010;28;20022;-72
2023/09/05 07:37:29;;;;;;;;;;;20.60;86.30;;;;;;5053009;28;19958;-70
2023/09/05 07:39:55;;;;;;;;;;;20.60;86.30;;;;;;5053580;28;19913;-70
2023/09/05 07:42:20;;;;;;;;;;;20.60;86.20;;;;;;5056513;28;20386;-71
2023/09/05 07:44:46;;;;;;;;;;;20.60;86.20;;;;;;5057062;28;20014;-71
2023/09/05 07:47:11;;;;;;;;;;;20.60;86.30;;;;;;5056509;28;19947;-70
2023/09/05 07:49:38;;;;;;;;;;;20.60;86.30;;;;;;5056341;28;20001;-70
2023/09/05 07:52:04;;;;;;;;;;;20.60;86.20;;;;;;5056275;28;20248;-70
2023/09/05 07:54:29;;;;;;;;;;;20.60;86.30;;;;;;5056493;28;19909;-70
2023/09/05 07:56:55;;;;;;;;;;;20.60;86.30;;;;;;5038505;28;20023;-70
2023/09/05 07:59:20;;;;;;;;;;;20.60;86.30;;;;;;5056193;28;20322;-70
2023/09/05 08:01:46;;;;;;;;;;;20.60;86.20;;;;;;5056330;28;19919;-70
2023/09/05 08:04:11;;;;;;;;;;;20.60;86.20;;;;;;5056365;28;19959;-71
2023/09/05 08:06:37;;;;;;;;;;;20.60;86.10;;;;;;5038217;28;19916;-70
2023/09/05 08:09:02;;;;;;;;;;;20.60;86.10;;;;;;5055708;28;19962;-70
2023/09/05 08:11:28;;;;;;;;;;;20.60;86.10;;;;;;5055914;28;19909;-68
2023/09/05 08:13:53;;;;;;;;;;;20.60;86.00;;;;;;5038220;28;19916;-71
2023/09/05 08:16:19;;;;;;;;;;;20.60;86.30;;;;;;5055536;28;20356;-71
2023/09/05 08:18:44;;;;;;;;;;;20.60;86.30;;;;;;5055914;28;19920;-72
2023/09/05 08:21:10;;;;;;;;;;;20.60;86.20;;;;;;5056011;28;19909;-72
2023/09/05 08:23:35;;;;;;;;;;;20.60;86.40;;;;;;5055808;28;19908;-73
2023/09/05 08:26:00;;;;;;;;;;;20.60;86.40;;;;;;5055592;28;20000;-72
2023/09/05 08:28:32;;;;;;;;;;;20.60;86.30;;;;;;5037888;28;20280;-73
2023/09/05 08:31:01;;;;;;;;;;;20.60;86.20;;;;;;5055580;28;20239;-72
2023/09/05 08:33:28;;;;;;;;;;;20.60;86.50;;;;;;5055701;28;20344;-72
2023/09/05 08:35:53;;;;;;;;;;;20.60;86.40;;;;;;5055684;28;19964;-72
2023/09/05 08:38:18;;;;;;;;;;;20.60;86.20;;;;;;5056332;28;19992;-73
2023/09/05 08:40:47;;;;;;;;;;;20.60;86.20;;;;;;5055702;28;19913;-71
2023/09/05 08:43:12;;;;;;;;;;;20.60;86.20;;;;;;5055056;28;20322;-73
2023/09/05 08:45:39;;;;;;;;;;;20.60;86.20;;;;;;5055489;28;19962;-73
2023/09/05 08:48:04;;;;;;;;;;;20.50;85.90;;;;;;5055572;28;19920;-74
2023/09/05 08:50:30;;;;;;;;;;;20.60;86.00;;;;;;5055136;28;19995;-71
2023/09/05 08:52:57;;;;;;;;;;;20.50;85.90;;;;;;5036288;28;19991;-71
2023/09/05 08:55:23;;;;;;;;;;;20.60;86.20;;;;;;5055181;28;19909;-71
2023/09/05 08:57:50;;;;;;;;;;;20.50;86.00;;;;;;5055203;28;19920;-72
2023/09/05 09:00:18;;;;;;;;;;;20.60;86.20;;;;;;5055059;28;19924;-73
2023/09/05 09:02:43;;;;;;;;;;;20.60;86.20;;;;;;5037318;28;19932;-72
2023/09/05 09:05:09;;;;;;;;;;;20.50;86.10;;;;;;5054896;28;20383;-73
2023/09/05 09:07:35;;;;;;;;;;;20.60;86.20;;;;;;5054834;28;19916;-71
2023/09/05 09:10:15;;;;;;;;;;;20.60;86.30;;;;;;5054876;28;19915;-72
2023/09/05 09:12:40;;;;;;;;;;;20.50;86.20;;;;;;5055035;28;19915;-72
2023/09/05 09:15:12;;;;;;;;;;;20.50;86.30;;;;;;5054856;28;20011;-74
2023/09/05 09:17:41;;;;;;;;;;;20.50;86.40;;;;;;5054681;28;20275;-72
2023/09/05 09:20:12;;;;;;;;;;;20.50;86.30;;;;;;5054499;28;19924;-72
2023/09/05 09:22:37;;;;;;;;;;;20.50;86.40;;;;;;5054632;28;19909;-72
2023/09/05 09:25:10;;;;;;;;;;;20.50;86.50;;;;;;5054116;28;20360;-72
2023/09/05 09:27:36;;;;;;;;;;;20.50;86.50;;;;;;5054198;28;19909;-72
2023/09/05 09:30:05;;;;;;;;;;;20.50;86.50;;;;;;5054257;28;19909;-70
2023/09/05 09:32:31;;;;;;;;;;;20.50;86.50;;;;;;5054485;28;19916;-72
2023/09/05 09:34:57;;;;;;;;;;;20.50;86.60;;;;;;5054161;28;19913;-71
2023/09/05 09:37:24;;;;;;;;;;;20.60;86.70;;;;;;5054573;28;19913;-69
2023/09/05 09:39:50;;;;;;;;;;;20.60;86.70;;;;;;5053909;28;19920;-69
2023/09/05 09:42:21;;;;;;;;;;;20.50;86.70;;;;;;5054078;28;19909;-71
2023/09/05 09:44:47;;;;;;;;;;;20.60;86.70;;;;;;5053982;28;19923;-72
2023/09/05 09:47:13;;;;;;;;;;;20.60;86.70;;;;;;5054079;28;19921;-72
2023/09/05 09:49:42;;;;;;;;;;;20.50;86.70;;;;;;5054156;28;19909;-70
2023/09/05 09:52:10;;;;;;;;;;;20.50;86.70;;;;;;5053962;28;19917;-72
2023/09/05 09:54:36;;;;;;;;;;;20.60;86.80;;;;;;5054183;28;19908;-71
2023/09/05 09:57:04;;;;;;;;;;;20.60;86.80;;;;;;5053885;28;19913;-71
2023/09/05 09:59:35;;;;;;;;;;;20.50;86.70;;;;;;5053462;28;20369;-72
2023/09/05 10:02:04;;;;;;;;;;;20.50;86.80;;;;;;5053930;28;20019;-72
2023/09/05 10:04:30;;;;;;;;;;;20.50;87.30;;;;;;5053405;28;19962;-71
2023/09/05 10:06:56;;;;;;;;;;;20.60;86.90;;;;;;5053830;28;19943;-71
2023/09/05 10:09:22;;;;;;;;;;;20.50;86.80;;;;;;5054227;28;19909;-71
2023/09/05 10:11:49;;;;;;;;;;;20.60;86.90;;;;;;5053806;28;19951;-72
2023/09/05 10:14:15;;;;;;;;;;;20.60;86.90;;;;;;5053823;28;20011;-71
2023/09/05 10:16:41;;;;;;;;;;;20.50;86.90;;;;;;5054072;28;20003;-73
2023/09/05 10:19:07;;;;;;;;;;;20.50;86.90;;;;;;5053862;28;19944;-72
2023/09/05 10:21:34;;;;;;;;;;;20.50;86.90;;;;;;5053779;28;19909;-71
2023/09/05 10:24:00;;;;;;;;;;;20.50;86.90;;;;;;5053891;28;19916;-71
2023/09/05 10:26:26;;;;;;;;;;;20.50;87.00;;;;;;5053785;28;19915;-72
2023/09/05 10:28:58;;;;;;;;;;;20.50;87.00;;;;;;5053483;28;19924;-72
2023/09/05 10:31:24;;;;;;;;;;;20.60;87.00;;;;;;5053859;28;19924;-71
2023/09/05 10:33:50;;;;;;;;;;;20.60;87.00;;;;;;5053574;28;19913;-71
2023/09/05 10:36:34;;;;;;;;;;;20.50;87.00;;;;;;5053712;28;19913;-71
2023/09/05 10:38:59;;;;;;;;;;;20.50;87.00;;;;;;5053696;28;19912;-72
2023/09/05 10:41:35;;;;;;;;;;;20.50;87.00;;;;;;5053507;28;19916;-71
2023/09/05 10:44:01;;;;;;;;;;;20.50;87.00;;;;;;5053791;28;19915;-72
2023/09/05 10:46:26;;;;;;;;;;;20.50;87.00;;;;;;5053405;28;19996;-72
2023/09/05 10:49:08;;;;;;;;;;;20.50;87.00;;;;;;5053440;28;19956;-71
2023/09/05 10:51:34;;;;;;;;;;;20.50;87.10;;;;;;5053305;28;19916;-73
2023/09/05 10:54:19;;;;;;;;;;;20.50;87.10;;;;;;5053390;28;19909;-72
2023/09/05 10:56:45;;;;;;;;;;;20.50;87.10;;;;;;5052813;28;19912;-73
2023/09/05 10:59:30;;;;;;;;;;;20.50;87.00;;;;;;5053302;28;19959;-73
2023/09/05 11:02:08;;;;;;;;;;;20.50;87.10;;;;;;5053188;28;19909;-73
2023/09/05 11:04:34;;;;;;;;;;;20.50;87.10;;;;;;5035436;28;19962;-73
2023/09/05 11:07:04;;;;;;;;;;;20.50;87.10;;;;;;5035583;28;19908;-72
2023/09/05 11:09:39;;;;;;;;;;;20.50;87.10;;;;;;5053141;28;19912;-69
2023/09/05 11:12:05;;;;;;;;;;;20.50;87.20;;;;;;5053328;28;19916;-74
2023/09/05 11:14:34;;;;;;;;;;;20.50;87.20;;;;;;5053224;28;19909;-73
2023/09/05 11:17:01;;;;;;;;;;;20.50;87.20;;;;;;5056894;28;20372;-71
2023/09/05 11:19:40;;;;;;;;;;;20.50;87.20;;;;;;5057138;28;20406;-73
2023/09/05 11:22:08;;;;;;;;;;;20.50;87.20;;;;;;5039510;28;19959;-73
2023/09/05 11:24:34;;;;;;;;;;;20.50;87.20;;;;;;5056999;28;19954;-72
2023/09/05 11:27:00;;;;;;;;;;;20.50;87.20;;;;;;5057119;28;20331;-70
2023/09/05 11:29:27;;;;;;;;;;;20.50;87.20;;;;;;5056914;28;20241;-71
2023/09/05 11:31:56;;;;;;;;;;;20.50;87.20;;;;;;5056708;28;19963;-72
2023/09/05 11:34:22;;;;;;;;;;;20.50;87.20;;;;;;5056919;28;19955;-72
2023/09/05 11:36:47;;;;;;;;;;;20.50;87.20;;;;;;5056777;28;20017;-72
2023/09/05 11:39:16;;;;;;;;;;;20.50;87.20;;;;;;5056622;28;19951;-72
2023/09/05 11:41:42;;;;;;;;;;;20.50;87.20;;;;;;5056660;28;20344;-72
2023/09/05 11:44:07;;;;;;;;;;;20.50;87.20;;;;;;5056605;28;19909;-74
2023/09/05 11:46:35;;;;;;;;;;;20.50;87.20;;;;;;5056451;28;19956;-70
2023/09/05 11:49:01;;;;;;;;;;;20.50;87.30;;;;;;5056315;28;20291;-73
2023/09/05 11:51:27;;;;;;;;;;;20.50;87.20;;;;;;5056230;28;19913;-74
2023/09/05 11:53:53;;;;;;;;;;;20.50;87.30;;;;;;5056522;28;19909;-74
2023/09/05 11:56:18;;;;;;;;;;;20.50;87.20;;;;;;5056357;28;19920;-73
2023/09/05 11:58:45;;;;;;;;;;;20.50;87.30;;;;;;5056452;28;20279;-73
2023/09/05 12:01:10;;;;;;;;;;;20.50;87.30;;;;;;5056007;28;19916;-73
2023/09/05 12:03:36;;;;;;;;;;;20.50;87.30;;;;;;5056059;28;19913;-72
2023/09/05 12:06:02;;;;;;;;;;;20.50;87.30;;;;;;5038245;28;19979;-72
2023/09/05 12:08:28;;;;;;;;;;;20.50;87.30;;;;;;5056654;28;19908;-73
2023/09/05 12:10:55;;;;;;;;;;;20.50;87.30;;;;;;5055887;28;19924;-74
2023/09/05 12:13:40;;;;;;;;;;;20.50;87.30;;;;;;5055822;28;20323;-73
2023/09/05 12:16:06;;;;;;;;;;;20.50;87.30;;;;;;5056204;28;19909;-72
2023/09/05 12:18:32;;;;;;;;;;;20.50;87.30;;;;;;5056402;28;19913;-73
2023/09/05 12:21:00;;;;;;;;;;;20.50;87.30;;;;;;5055635;28;19967;-73
2023/09/05 12:23:29;;;;;;;;;;;20.50;87.30;;;;;;5038214;28;20007;-73
2023/09/05 12:25:55;;;;;;;;;;;20.50;87.30;;;;;;5055491;28;20038;-71
2023/09/05 12:28:21;;;;;;;;;;;20.50;87.30;;;;;;5055846;28;19917;-72
2023/09/05 12:30:53;;;;;;;;;;;20.50;87.30;;;;;;5055556;28;19913;-73
2023/09/05 12:33:19;;;;;;;;;;;20.50;87.30;;;;;;5037991;28;19915;-73
2023/09/05 12:35:44;;;;;;;;;;;20.50;87.30;;;;;;5055717;28;19999;-73
2023/09/05 12:38:10;;;;;;;;;;;20.50;87.30;;;;;;5055468;28;20387;-72
2023/09/05 12:40:36;;;;;;;;;;;20.50;87.30;;;;;;5055430;28;19916;-71
2023/09/05 12:43:02;;;;;;;;;;;20.50;87.30;;;;;;5055600;28;20364;-71
2023/09/05 12:45:27;;;;;;;;;;;20.50;87.30;;;;;;5055531;28;20007;-72
2023/09/05 12:47:53;;;;;;;;;;;20.50;87.40;;;;;;5054864;28;20364;-71
2023/09/05 12:50:28;;;;;;;;;;;20.50;87.80;;;;;;5055153;28;19912;-72
2023/09/05 12:52:54;;;;;;;;;;;20.50;87.40;;;;;;5055877;28;19909;-72
2023/09/05 12:55:20;;;;;;;;;;;20.50;87.40;;;;;;5055475;28;19932;-74
2023/09/05 12:57:46;;;;;;;;;;;20.50;87.40;;;;;;5055275;28;20372;-73
2023/09/05 13:00:12;;;;;;;;;;;20.50;87.40;;;;;;5054909;28;19967;-73
2023/09/05 13:02:41;;;;;;;;;;;20.50;87.40;;;;;;5054823;28;19948;-72
2023/09/05 13:05:07;;;;;;;;;;;20.50;87.40;;;;;;5054699;28;19912;-68
2023/09/05 13:07:32;;;;;;;;;;;20.50;87.40;;;;;;5054884;28;19934;-68
2023/09/05 13:09:58;;;;;;;;;;;20.50;87.40;;;;;;5054868;28;19909;-69
2023/09/05 13:12:23;;;;;;;;;;;20.50;87.40;;;;;;5054759;28;19912;-69
2023/09/05 13:14:49;;;;;;;;;;;20.50;87.40;;;;;;5054592;28;19963;-69
2023/09/05 13:17:15;;;;;;;;;;;20.50;87.40;;;;;;5036836;28;20370;-69
2023/09/05 13:19:43;;;;;;;;;;;20.50;87.40;;;;;;5054557;28;20355;-70
2023/09/05 13:22:10;;;;;;;;;;;20.50;87.40;;;;;;5036852;28;19909;-70
2023/09/05 13:24:35;;;;;;;;;;;20.50;87.40;;;;;;5054789;28;19944;-68
2023/09/05 13:27:01;;;;;;;;;;;20.50;87.40;;;;;;5054333;28;19955;-70
2023/09/05 13:29:26;;;;;;;;;;;20.50;87.40;;;;;;5054588;28;19913;-70
2023/09/05 13:31:52;;;;;;;;;;;20.50;87.50;;;;;;5054657;28;19917;-71
2023/09/05 13:34:18;;;;;;;;;;;20.50;87.40;;;;;;5054792;28;19909;-70
2023/09/05 13:36:43;;;;;;;;;;;20.50;87.40;;;;;;5054612;28;19920;-70
2023/09/05 13:39:09;;;;;;;;;;;20.50;87.40;;;;;;5035980;28;19916;-70
2023/09/05 13:41:35;;;;;;;;;;;20.50;87.40;;;;;;5036469;28;19916;-69
2023/09/05 13:44:01;;;;;;;;;;;20.50;87.40;;;;;;5054501;28;20272;-70
2023/09/05 13:46:26;;;;;;;;;;;20.50;87.50;;;;;;5054250;28;20382;-70
2023/09/05 13:48:52;;;;;;;;;;;20.50;87.40;;;;;;5054189;28;19963;-73
2023/09/05 13:51:22;;;;;;;;;;;20.50;87.50;;;;;;5054491;28;19915;-71
2023/09/05 13:53:48;;;;;;;;;;;20.50;87.40;;;;;;5054078;28;19913;-72
2023/09/05 13:56:13;;;;;;;;;;;20.50;87.40;;;;;;5054162;28;20413;-71
2023/09/05 13:58:39;;;;;;;;;;;20.50;87.40;;;;;;5053839;28;19912;-70
2023/09/05 14:01:05;;;;;;;;;;;20.50;87.40;;;;;;5053759;28;19909;-70
2023/09/05 14:03:31;;;;;;;;;;;20.50;87.40;;;;;;5036128;28;19952;-70
2023/09/05 14:05:57;;;;;;;;;;;20.50;87.40;;;;;;5053921;28;19963;-70
2023/09/05 14:08:24;;;;;;;;;;;20.50;87.40;;;;;;5053975;28;19952;-72
2023/09/05 14:10:50;;;;;;;;;;;20.50;87.40;;;;;;5053996;28;20271;-70
2023/09/05 14:13:16;;;;;;;;;;;20.50;87.50;;;;;;5035802;28;19909;-70